createdAt,value
2022-09-16T00:02:40.104Z,6.85
2022-09-16T00:05:31.878Z,7.45
2022-09-16T00:08:24.166Z,7.00
2022-09-16T00:11:15.629Z,8.35
2022-09-16T00:14:06.730Z,5.90
2022-09-16T00:16:57.247Z,6.93
2022-09-16T00:19:48.558Z,6.97
2022-09-16T00:22:39.288Z,6.70
2022-09-16T00:25:30.038Z,7.05
2022-09-16T00:28:23.921Z,6.68
2022-09-16T00:31:14.692Z,6.35
2022-09-16T00:34:05.266Z,13.73
2022-09-16T00:36:56.183Z,5.97
2022-09-16T00:39:46.794Z,5.18
2022-09-16T00:42:42.323Z,6.55
2022-09-16T00:45:33.550Z,6.25
2022-09-16T00:48:25.760Z,5.50
2022-09-16T00:51:17.591Z,7.05
2022-09-16T00:54:11.196Z,6.28
2022-09-16T00:57:05.603Z,6.45
2022-09-16T00:59:57.804Z,7.45
2022-09-16T01:02:50.179Z,7.53
2022-09-16T01:05:41.400Z,7.57
2022-09-16T01:08:32.227Z,6.22
2022-09-16T01:11:23.035Z,6.10
2022-09-16T01:14:35.586Z,5.95
2022-09-16T01:17:38.367Z,6.30
2022-09-16T01:20:34.675Z,11.18
2022-09-16T01:24:09.366Z,5.82
2022-09-16T01:27:34.343Z,5.85
2022-09-16T01:30:46.713Z,5.63
2022-09-16T01:33:44.573Z,5.07
2022-09-16T01:36:38.409Z,6.57
2022-09-16T01:39:50.565Z,5.85
2022-09-16T01:43:13.073Z,4.57
2022-09-16T01:46:27.516Z,5.18
2022-09-16T01:49:25.163Z,4.60
2022-09-16T01:52:39.925Z,4.63
2022-09-16T01:55:58.920Z,5.20
2022-09-16T01:59:29.054Z,5.35
2022-09-16T02:02:23.576Z,4.50
2022-09-16T02:05:19.459Z,5.78
2022-09-16T02:08:17.592Z,5.97
2022-09-16T02:11:11.213Z,4.85
2022-09-16T02:14:11.592Z,4.70
2022-09-16T02:17:17.814Z,5.40
2022-09-16T02:20:21.500Z,4.55
2022-09-16T02:23:18.822Z,6.10
2022-09-16T02:26:12.066Z,5.93
2022-09-16T02:29:06.232Z,5.38
2022-09-16T02:32:00.091Z,8.10
2022-09-16T02:34:53.727Z,5.40
2022-09-16T02:37:50.756Z,6.38
2022-09-16T02:40:49.403Z,5.20
2022-09-16T02:43:41.453Z,5.00
2022-09-16T02:47:06.084Z,9.43
2022-09-16T02:50:04.139Z,6.18
2022-09-16T02:53:25.717Z,5.68
2022-09-16T02:56:32.209Z,6.50
2022-09-16T02:59:23.893Z,6.38
2022-09-16T03:02:14.900Z,5.97
2022-09-16T03:05:06.874Z,5.97
2022-09-16T03:07:57.348Z,6.10
2022-09-16T03:10:50.149Z,5.35
2022-09-16T03:13:51.847Z,5.20
2022-09-16T03:16:56.236Z,4.72
2022-09-16T03:20:08.032Z,5.43
2022-09-16T03:23:09.639Z,6.60
2022-09-16T03:26:29.055Z,7.03
2022-09-16T03:29:25.782Z,5.43
2022-09-16T03:32:51.570Z,4.10
2022-09-16T03:35:48.430Z,3.45
2022-09-16T03:38:40.134Z,3.92
2022-09-16T03:41:35.467Z,3.90
2022-09-16T03:44:39.004Z,4.35
2022-09-16T03:47:31.099Z,4.40
2022-09-16T03:50:22.122Z,4.47
2022-09-16T03:53:12.483Z,4.00
2022-09-16T03:56:02.458Z,4.13
2022-09-16T03:58:53.575Z,4.15
2022-09-16T04:01:44.538Z,3.50
2022-09-16T04:04:37.182Z,4.50
2022-09-16T04:07:28.221Z,4.00
2022-09-16T04:10:19.995Z,3.75
2022-09-16T04:13:11.315Z,3.72
2022-09-16T04:16:03.919Z,4.10
2022-09-16T04:18:55.169Z,4.40
2022-09-16T04:21:46.926Z,3.45
2022-09-16T04:24:39.051Z,3.55
2022-09-16T04:27:30.358Z,4.45
2022-09-16T04:30:21.898Z,3.83
2022-09-16T04:33:12.091Z,3.80
2022-09-16T04:36:19.363Z,3.88
2022-09-16T04:39:12.728Z,4.10
2022-09-16T04:42:07.035Z,3.42
2022-09-16T04:44:57.957Z,4.05
2022-09-16T04:47:48.533Z,4.43
2022-09-16T04:50:41.029Z,4.13
2022-09-16T04:56:36.804Z,4.00
2022-09-16T04:59:28.305Z,4.85
2022-09-16T05:02:18.935Z,3.35
2022-09-16T05:05:14.752Z,4.07
2022-09-16T05:08:05.606Z,3.63
2022-09-16T05:10:56.114Z,4.50
2022-09-16T05:13:48.438Z,2.95
2022-09-16T05:16:39.128Z,5.05
2022-09-16T05:19:30.451Z,3.35
2022-09-16T05:22:21.530Z,3.15
2022-09-16T05:25:12.398Z,4.15
2022-09-16T05:28:05.130Z,3.28
2022-09-16T05:30:56.643Z,4.07
2022-09-16T05:33:49.334Z,5.85
2022-09-16T05:36:40.761Z,4.00
2022-09-16T05:39:31.937Z,4.32
2022-09-16T05:42:22.129Z,4.53
2022-09-16T05:45:12.969Z,3.67
2022-09-16T05:48:03.074Z,3.95
2022-09-16T05:51:07.861Z,6.95
2022-09-16T05:54:00.667Z,3.80
2022-09-16T05:56:52.157Z,3.85
2022-09-16T05:59:44.529Z,4.25
2022-09-16T06:02:35.438Z,3.97
2022-09-16T06:05:25.626Z,4.32
2022-09-16T06:08:17.356Z,3.88
2022-09-16T06:11:11.990Z,4.30
2022-09-16T06:14:07.484Z,4.22
2022-09-16T06:16:58.232Z,4.72
2022-09-16T06:19:51.371Z,4.03
2022-09-16T06:22:42.445Z,3.72
2022-09-16T06:25:34.364Z,5.03
2022-09-16T06:28:24.574Z,4.00
2022-09-16T06:31:27.290Z,4.63
2022-09-16T06:34:20.351Z,5.38
2022-09-16T06:37:14.114Z,4.63
2022-09-16T06:40:06.266Z,4.80
2022-09-16T06:43:00.305Z,4.72
2022-09-16T06:45:53.744Z,4.90
2022-09-16T06:48:46.991Z,5.32
2022-09-16T06:51:37.436Z,3.83
2022-09-16T06:54:28.868Z,4.78
2022-09-16T06:57:28.395Z,13.10
2022-09-16T07:00:20.021Z,5.43
2022-09-16T07:03:10.622Z,4.93
2022-09-16T07:06:03.427Z,4.75
2022-09-16T07:09:00.610Z,4.80
2022-09-16T07:11:51.300Z,5.20
2022-09-16T07:14:41.753Z,4.97
2022-09-16T07:17:32.340Z,5.45
2022-09-16T07:20:23.998Z,5.43
2022-09-16T07:23:15.464Z,7.78
2022-09-16T07:26:07.414Z,6.68
2022-09-16T07:29:02.235Z,6.20
2022-09-16T07:31:53.300Z,5.53
2022-09-16T07:34:43.170Z,7.15
2022-09-16T07:37:34.043Z,5.47
2022-09-16T07:40:29.626Z,5.13
2022-09-16T07:43:19.998Z,5.22
2022-09-16T07:46:13.697Z,6.18
2022-09-16T07:49:06.586Z,5.35
2022-09-16T07:51:59.818Z,5.28
2022-09-16T07:54:53.139Z,5.90
2022-09-16T07:57:46.618Z,5.07
2022-09-16T08:00:36.648Z,4.82
2022-09-16T08:03:32.239Z,4.32
2022-09-16T08:06:32.266Z,4.50
2022-09-16T08:09:38.724Z,4.25
2022-09-16T08:12:37.514Z,5.43
2022-09-16T08:15:28.565Z,4.80
2022-09-16T08:18:18.956Z,6.15
2022-09-16T08:21:11.741Z,5.05
2022-09-16T08:24:02.981Z,4.30
2022-09-16T08:26:57.803Z,4.43
2022-09-16T08:29:48.527Z,4.93
2022-09-16T08:32:38.682Z,4.80
2022-09-16T08:35:34.197Z,5.60
2022-09-16T08:38:25.741Z,4.60
2022-09-16T08:41:17.899Z,6.60
2022-09-16T08:44:44.949Z,5.40
2022-09-16T08:47:35.841Z,5.13
2022-09-16T08:50:37.341Z,8.95
2022-09-16T08:53:44.449Z,5.28
2022-09-16T08:56:39.461Z,4.97
2022-09-16T08:59:46.923Z,4.68
2022-09-16T09:02:51.199Z,8.35
2022-09-16T09:05:59.860Z,6.30
2022-09-16T09:09:30.795Z,5.55
2022-09-16T09:12:21.693Z,6.82
2022-09-16T09:15:36.897Z,7.38
2022-09-16T09:18:45.071Z,6.30
2022-09-16T09:21:57.152Z,17.98
2022-09-16T09:24:57.701Z,6.35
2022-09-16T09:28:03.618Z,7.03
2022-09-16T09:34:38.351Z,6.00
2022-09-16T09:37:51.401Z,6.22
2022-09-16T09:41:13.553Z,5.75
2022-09-16T09:44:32.357Z,5.50
2022-09-16T09:47:43.209Z,6.22
2022-09-16T09:50:48.666Z,6.63
2022-09-16T09:53:45.519Z,29.98
2022-09-16T09:56:39.939Z,11.43
2022-09-16T09:59:34.144Z,6.20
2022-09-16T10:02:26.238Z,5.40
2022-09-16T10:05:37.608Z,9.43
2022-09-16T10:08:45.216Z,6.47
2022-09-16T10:11:38.441Z,6.15
2022-09-16T10:14:28.983Z,5.93
2022-09-16T10:17:20.468Z,5.28
2022-09-16T10:20:32.438Z,6.03
2022-09-16T10:23:29.640Z,5.82
2022-09-16T10:26:26.168Z,5.68
2022-09-16T10:29:26.936Z,4.95
2022-09-16T10:32:25.725Z,5.38
2022-09-16T10:35:26.228Z,5.10
2022-09-16T10:38:20.385Z,5.03
2022-09-16T10:44:34.773Z,5.90
2022-09-16T10:47:33.512Z,8.68
2022-09-16T10:50:27.817Z,8.38
2022-09-16T10:53:30.401Z,7.18
2022-09-16T10:56:24.826Z,5.57
2022-09-16T10:59:17.071Z,7.28
2022-09-16T11:02:34.565Z,6.88
2022-09-16T11:05:44.063Z,4.95
2022-09-16T11:08:44.557Z,8.55
2022-09-16T11:11:49.667Z,6.57
2022-09-16T11:14:50.297Z,6.75
2022-09-16T11:18:08.283Z,6.72
2022-09-16T11:21:16.858Z,6.75
2022-09-16T11:24:45.704Z,5.68
2022-09-16T11:28:20.982Z,5.25
2022-09-16T11:31:23.687Z,4.30
2022-09-16T11:34:20.250Z,5.65
2022-09-16T11:37:20.664Z,6.00
2022-09-16T11:40:25.718Z,6.35
2022-09-16T11:43:41.422Z,5.53
2022-09-16T11:47:00.846Z,6.47
2022-09-16T11:50:25.943Z,4.22
2022-09-16T11:53:51.483Z,4.30
2022-09-16T11:56:58.868Z,3.92
2022-09-16T12:00:00.330Z,3.78
2022-09-16T12:03:07.415Z,5.30
2022-09-16T12:06:07.031Z,5.10
2022-09-16T12:09:28.448Z,4.65
2022-09-16T12:12:22.433Z,5.28
2022-09-16T12:15:19.261Z,4.85
2022-09-16T12:18:21.740Z,4.18
2022-09-16T12:21:27.263Z,3.92
2022-09-16T12:24:39.924Z,4.20
2022-09-16T12:27:36.713Z,4.40
2022-09-16T12:30:44.294Z,6.53
2022-09-16T12:33:43.387Z,4.80
2022-09-16T12:36:37.607Z,4.40
2022-09-16T12:39:28.244Z,5.20
2022-09-16T12:42:24.728Z,4.68
2022-09-16T12:45:39.963Z,5.05
2022-09-16T12:49:11.825Z,4.28
2022-09-16T12:52:21.253Z,4.07
2022-09-16T12:55:52.718Z,5.15
2022-09-16T12:59:23.624Z,4.22
2022-09-16T13:02:22.576Z,4.88
2022-09-16T13:05:39.836Z,6.22
2022-09-16T13:08:36.243Z,5.22
2022-09-16T13:14:57.026Z,4.13
2022-09-16T13:17:50.858Z,4.13
2022-09-16T13:20:55.463Z,4.18
2022-09-16T13:23:52.769Z,3.78
2022-09-16T13:26:49.176Z,4.30
2022-09-16T13:29:42.453Z,6.03
2022-09-16T13:33:04.244Z,4.35
2022-09-16T13:36:20.860Z,3.97
2022-09-16T13:39:32.132Z,4.80
2022-09-16T13:42:25.305Z,4.20
2022-09-16T13:45:40.754Z,3.85
2022-09-16T13:48:39.142Z,4.28
2022-09-16T13:51:35.346Z,4.18
2022-09-16T13:54:33.083Z,4.75
2022-09-16T13:57:40.380Z,4.32
2022-09-16T14:00:40.715Z,4.03
2022-09-16T14:03:47.804Z,4.07
2022-09-16T14:07:06.206Z,3.70
2022-09-16T14:10:03.371Z,3.33
2022-09-16T14:12:58.465Z,3.78
2022-09-16T14:15:53.031Z,3.80
2022-09-16T14:18:46.884Z,4.32
2022-09-16T14:21:45.347Z,3.65
2022-09-16T14:24:42.543Z,4.00
2022-09-16T14:27:42.850Z,4.18
2022-09-16T14:30:33.988Z,4.30
2022-09-16T14:33:31.873Z,4.72
2022-09-16T14:36:43.438Z,4.43
2022-09-16T14:39:36.520Z,5.55
2022-09-16T14:42:28.380Z,6.00
2022-09-16T14:45:22.923Z,5.68
2022-09-16T14:48:14.703Z,6.88
2022-09-16T14:51:05.855Z,6.90
2022-09-16T14:54:12.264Z,5.68
2022-09-16T14:57:18.031Z,7.85
2022-09-16T15:00:18.795Z,5.90
2022-09-16T15:03:27.113Z,6.00
2022-09-16T15:06:26.480Z,5.60
2022-09-16T15:10:05.166Z,5.18
2022-09-16T15:13:04.623Z,4.70
2022-09-16T15:19:21.267Z,5.32
2022-09-16T15:22:18.866Z,5.03
2022-09-16T15:25:24.984Z,4.90
2022-09-16T15:28:24.889Z,4.25
2022-09-16T15:31:17.889Z,4.75
2022-09-16T15:34:32.369Z,4.70
2022-09-16T15:37:37.362Z,4.63
2022-09-16T15:43:41.706Z,4.85
2022-09-16T15:46:33.181Z,5.32
2022-09-16T15:49:28.441Z,4.70
2022-09-16T15:52:20.389Z,4.78
2022-09-16T15:55:12.216Z,4.78
2022-09-16T15:58:20.062Z,5.15
2022-09-16T16:01:19.647Z,5.35
2022-09-16T16:04:14.362Z,4.97
2022-09-16T16:07:07.344Z,4.35
2022-09-16T16:09:58.232Z,4.25
2022-09-16T16:12:55.132Z,4.78
2022-09-16T16:15:47.565Z,4.20
2022-09-16T16:18:39.489Z,4.10
2022-09-16T16:21:30.693Z,4.07
2022-09-16T16:24:22.098Z,4.70
2022-09-16T16:27:12.575Z,4.82
2022-09-16T16:30:03.052Z,4.32
2022-09-16T16:32:55.509Z,5.00
2022-09-16T16:35:45.840Z,4.60
2022-09-16T16:38:38.306Z,4.45
2022-09-16T16:41:31.980Z,4.70
2022-09-16T16:44:24.071Z,4.07
2022-09-16T16:47:14.778Z,4.32
2022-09-16T16:50:05.695Z,4.50
2022-09-16T16:52:57.518Z,5.07
2022-09-16T16:55:49.203Z,5.25
2022-09-16T16:58:46.404Z,4.85
2022-09-16T17:01:37.219Z,4.80
2022-09-16T17:04:31.093Z,5.32
2022-09-16T17:07:28.368Z,5.63
2022-09-16T17:10:19.421Z,4.50
2022-09-16T17:13:11.166Z,4.85
2022-09-16T17:16:04.477Z,5.15
2022-09-16T17:18:56.052Z,5.25
2022-09-16T17:21:49.843Z,5.15
2022-09-16T17:24:43.215Z,6.05
2022-09-16T17:27:38.757Z,8.52
2022-09-16T17:30:29.381Z,13.52
2022-09-16T17:33:20.078Z,14.35
2022-09-16T17:36:15.783Z,14.85
2022-09-16T17:39:17.376Z,16.75
2022-09-16T17:42:11.218Z,15.40
2022-09-16T17:45:07.618Z,17.40
2022-09-16T17:47:59.873Z,18.42
2022-09-16T17:50:54.459Z,18.48
2022-09-16T17:53:45.769Z,18.48
2022-09-16T17:56:36.810Z,19.20
2022-09-16T17:59:27.792Z,19.08
2022-09-16T18:02:18.037Z,16.95
2022-09-16T18:05:10.865Z,19.30
2022-09-16T18:08:00.761Z,20.10
2022-09-16T18:10:56.973Z,16.92
2022-09-16T18:13:48.744Z,14.10
2022-09-16T18:16:39.821Z,12.07
2022-09-16T18:19:31.405Z,13.55
2022-09-16T18:22:22.156Z,13.15
2022-09-16T18:25:14.627Z,13.63
2022-09-16T18:28:05.820Z,13.52
2022-09-16T18:31:08.642Z,15.45
2022-09-16T18:33:59.804Z,15.98
2022-09-16T18:36:50.203Z,16.33
2022-09-16T18:39:40.348Z,15.02
2022-09-16T18:42:30.540Z,15.95
2022-09-16T18:45:21.058Z,16.45
2022-09-16T18:48:12.413Z,17.75
2022-09-16T18:51:03.965Z,17.98
2022-09-16T18:53:57.232Z,18.33
2022-09-16T18:56:50.637Z,19.95
2022-09-16T18:59:40.520Z,21.10
2022-09-16T19:02:30.453Z,19.90
2022-09-16T19:05:20.778Z,20.35
2022-09-16T19:08:11.151Z,20.10
2022-09-16T19:11:07.858Z,20.27
2022-09-16T19:13:58.630Z,22.25
2022-09-16T19:16:49.074Z,20.38
2022-09-16T19:19:39.263Z,21.60
2022-09-16T19:22:29.436Z,21.58
2022-09-16T19:25:19.427Z,21.33
2022-09-16T19:28:09.465Z,21.30
2022-09-16T19:31:10.223Z,22.17
2022-09-16T19:34:01.059Z,22.30
2022-09-16T19:36:51.498Z,21.10
2022-09-16T19:39:41.269Z,23.77
2022-09-16T19:42:34.600Z,25.75
2022-09-16T19:45:27.900Z,24.92
2022-09-16T19:48:18.898Z,23.80
2022-09-16T19:51:14.115Z,22.83
2022-09-16T19:54:04.525Z,21.90
2022-09-16T19:56:54.792Z,23.13
2022-09-16T19:59:47.192Z,20.40
2022-09-16T20:02:38.587Z,20.60
2022-09-16T20:05:31.407Z,20.17
2022-09-16T20:08:21.621Z,19.15
2022-09-16T20:11:20.364Z,19.23
2022-09-16T20:14:15.247Z,20.50
2022-09-16T20:17:05.813Z,21.17
2022-09-16T20:19:55.511Z,20.15
2022-09-16T20:22:45.570Z,20.38
2022-09-16T20:25:38.281Z,19.70
2022-09-16T20:28:33.604Z,21.17
2022-09-16T20:31:29.398Z,20.90
2022-09-16T20:34:19.527Z,20.63
2022-09-16T20:37:09.837Z,21.02
2022-09-16T20:39:59.767Z,24.35
2022-09-16T20:42:51.145Z,20.45
2022-09-16T20:45:41.667Z,19.73
2022-09-16T20:48:32.055Z,19.08
2022-09-16T20:51:23.971Z,17.85
2022-09-16T20:54:15.791Z,15.90
2022-09-16T20:57:06.530Z,15.50
2022-09-16T20:59:57.755Z,14.18
2022-09-16T21:02:47.969Z,13.10
2022-09-16T21:05:37.845Z,13.23
2022-09-16T21:08:33.258Z,13.43
2022-09-16T21:11:24.638Z,12.15
2022-09-16T21:14:17.482Z,11.60
2022-09-16T21:17:07.296Z,11.70
2022-09-16T21:19:57.105Z,10.60
2022-09-16T21:22:47.936Z,11.13
2022-09-16T21:25:39.205Z,11.77
2022-09-16T21:28:29.334Z,11.23
2022-09-16T21:31:19.982Z,11.82
2022-09-16T21:34:16.985Z,12.07
2022-09-16T21:37:07.570Z,12.55
2022-09-16T21:39:57.762Z,12.15
2022-09-16T21:42:48.310Z,12.30
2022-09-16T21:45:45.963Z,12.95
2022-09-16T21:48:36.619Z,13.85
2022-09-16T21:51:27.162Z,13.80
2022-09-16T21:54:20.575Z,12.63
2022-09-16T21:57:10.811Z,11.15
2022-09-16T22:00:00.841Z,12.32
2022-09-16T22:02:58.582Z,12.50
2022-09-16T22:05:48.637Z,10.05
2022-09-16T22:08:39.047Z,9.50
2022-09-16T22:11:32.542Z,9.20
2022-09-16T22:14:22.970Z,8.32
2022-09-16T22:17:13.002Z,7.97
2022-09-16T22:20:03.051Z,8.27
2022-09-16T22:22:53.219Z,8.68
2022-09-16T22:25:43.727Z,6.95
2022-09-16T22:28:33.463Z,8.25
2022-09-16T22:31:31.930Z,6.18
2022-09-16T22:34:22.721Z,6.75
2022-09-16T22:37:13.417Z,6.60
2022-09-16T22:40:03.558Z,7.65
2022-09-16T22:42:53.850Z,6.53
2022-09-16T22:45:44.228Z,7.22
2022-09-16T22:48:34.238Z,8.60
2022-09-16T22:51:25.711Z,17.25
2022-09-16T22:54:17.403Z,10.48
2022-09-16T22:57:07.295Z,7.90
2022-09-16T22:59:57.023Z,8.18
2022-09-16T23:02:47.463Z,8.63
2022-09-16T23:05:37.373Z,8.55
2022-09-16T23:08:27.980Z,7.07
2022-09-16T23:11:21.318Z,8.07
2022-09-16T23:14:15.848Z,8.40
2022-09-16T23:17:05.881Z,6.88
2022-09-16T23:19:56.769Z,7.22
2022-09-16T23:22:47.451Z,7.20
2022-09-16T23:25:37.683Z,7.25
2022-09-16T23:28:27.916Z,6.90
2022-09-16T23:31:19.487Z,7.53
2022-09-16T23:34:13.607Z,7.00
2022-09-16T23:37:05.955Z,8.85
2022-09-16T23:39:56.541Z,8.63
2022-09-16T23:42:47.854Z,8.85
2022-09-16T23:45:39.998Z,9.25
2022-09-16T23:48:30.656Z,9.55
2022-09-16T23:51:27.951Z,9.38
2022-09-16T23:54:19.108Z,13.07
2022-09-16T23:57:09.868Z,11.95
